Time;durP1;ratioP1;P1;durP2;ratioP2;P2;SDS_P1;SDS_P2;PMS_P1;PMS_P2;Temp;Humidity;BMP_temperature;BMP_pressure;BME280_temperature;BME280_humidity;BME280_pressure;Samples;Min_cycle;Max_cycle;Signal;HPM_P1;HPM_P2
2023/04/02 00:01:36;;;;;;;19.88;4.30;;;11.70;99.90;;;;;;5033408;28;20568;-64
2023/04/02 00:04:04;;;;;;;22.10;4.35;;;11.70;99.90;;;;;;5033401;28;20040;-64
2023/04/02 00:06:34;;;;;;;19.25;4.20;;;11.80;99.90;;;;;;5051453;28;20040;-64
2023/04/02 00:09:04;;;;;;;21.42;4.80;;;11.60;99.90;;;;;;5053085;28;20021;-64
2023/04/02 00:11:36;;;;;;;24.15;5.10;;;11.60;99.90;;;;;;5052907;28;20025;-64
2023/04/02 00:14:04;;;;;;;25.35;4.95;;;11.60;99.90;;;;;;5053440;28;20048;-64
2023/04/02 00:16:30;;;;;;;21.83;4.60;;;11.60;99.90;;;;;;5052803;28;20037;-64
2023/04/02 00:19:02;;;;;;;21.33;4.90;;;11.60;99.90;;;;;;5052856;28;20390;-64
2023/04/02 00:21:32;;;;;;;18.33;4.45;;;11.60;99.90;;;;;;5052342;28;20408;-64
2023/04/02 00:24:12;;;;;;;18.33;3.97;;;11.60;99.90;;;;;;5053093;28;20029;-64
2023/04/02 00:26:43;;;;;;;17.30;4.13;;;11.60;99.90;;;;;;5052204;28;20041;-64
2023/04/02 00:29:11;;;;;;;23.25;4.75;;;11.60;99.90;;;;;;5052961;28;20021;-64
2023/04/02 00:31:41;;;;;;;21.63;4.20;;;11.60;99.90;;;;;;5052676;28;20095;-64
2023/04/02 00:34:13;;;;;;;17.85;4.22;;;11.60;99.90;;;;;;5052575;28;20025;-64
2023/04/02 00:36:40;;;;;;;19.77;4.35;;;11.70;99.90;;;;;;5052159;28;20025;-64
2023/04/02 00:39:14;;;;;;;22.85;4.75;;;11.70;99.90;;;;;;5052366;28;20036;-64
2023/04/02 00:41:45;;;;;;;24.45;4.63;;;11.70;99.90;;;;;;5052440;28;20052;-64
2023/04/02 00:44:14;;;;;;;22.08;4.47;;;11.70;99.90;;;;;;5052529;28;20041;-64
2023/04/02 00:46:45;;;;;;;17.80;4.38;;;11.70;99.90;;;;;;5052321;28;20036;-64
2023/04/02 00:49:26;;;;;;;18.73;4.55;;;11.60;99.90;;;;;;5052579;28;20044;-64
2023/04/02 00:51:57;;;;;;;20.83;4.30;;;11.70;99.90;;;;;;5052005;28;20052;-64
2023/04/02 00:54:26;;;;;;;20.85;4.82;;;11.70;99.90;;;;;;5052190;28;20028;-63
2023/04/02 00:56:54;;;;;;;20.10;4.18;;;11.70;99.90;;;;;;5052355;28;20083;-64
2023/04/02 00:59:29;;;;;;;20.05;4.70;;;11.70;99.90;;;;;;5052120;28;20139;-64
2023/04/02 01:02:13;;;;;;;19.30;4.78;;;11.70;99.90;;;;;;5052093;28;20053;-64
2023/04/02 01:04:40;;;;;;;19.70;5.47;;;11.70;99.90;;;;;;5051674;28;20056;-64
2023/04/02 01:07:09;;;;;;;21.00;5.13;;;11.80;99.90;;;;;;5052072;28;20025;-64
2023/04/02 01:09:55;;;;;;;22.48;4.65;;;11.70;99.90;;;;;;5051931;28;20060;-64
2023/04/02 01:12:44;;;;;;;20.92;4.65;;;11.70;99.90;;;;;;5052111;28;20029;-64
2023/04/02 01:15:20;;;;;;;21.15;4.57;;;11.70;99.90;;;;;;5052032;28;20092;-64
2023/04/02 01:18:16;;;;;;;15.15;4.13;;;11.80;99.90;;;;;;5051755;28;20056;-64
2023/04/02 01:21:06;;;;;;;22.88;4.15;;;11.80;99.90;;;;;;5051592;28;20040;-64
2023/04/02 01:24:00;;;;;;;22.63;4.57;;;11.80;99.90;;;;;;5051978;28;20068;-64
2023/04/02 01:26:31;;;;;;;20.17;4.90;;;11.80;99.90;;;;;;5051735;28;20517;-64
2023/04/02 01:29:05;;;;;;;22.52;4.70;;;11.80;99.90;;;;;;5051849;28;20450;-64
2023/04/02 01:31:33;;;;;;;20.02;4.82;;;11.80;99.90;;;;;;5052192;28;20074;-64
2023/04/02 01:33:59;;;;;;;16.17;4.88;;;11.80;99.90;;;;;;5051011;28;20029;-64
2023/04/02 01:36:56;;;;;;;20.92;4.88;;;11.80;99.90;;;;;;5052169;28;20493;-64
2023/04/02 01:39:53;;;;;;;19.02;4.40;;;11.80;99.90;;;;;;5051739;28;20033;-64
2023/04/02 01:42:47;;;;;;;25.05;4.28;;;11.80;99.90;;;;;;5051319;28;20516;-64
2023/04/02 01:45:15;;;;;;;21.40;4.20;;;11.80;99.90;;;;;;5029490;28;20328;-64
2023/04/02 01:47:43;;;;;;;21.15;4.25;;;11.80;99.90;;;;;;5029454;28;20120;-64
2023/04/02 01:50:30;;;;;;;16.80;4.50;;;11.80;99.90;;;;;;5029507;28;20093;-64
2023/04/02 01:53:01;;;;;;;30.95;5.35;;;11.70;99.90;;;;;;5029658;28;20040;-64
2023/04/02 01:55:38;;;;;;;22.15;4.28;;;11.80;99.90;;;;;;5029594;28;20077;-64
2023/04/02 01:58:05;;;;;;;19.35;4.45;;;11.80;99.90;;;;;;5029911;28;20435;-64
2023/04/02 02:00:33;;;;;;;19.83;4.75;;;11.80;99.90;;;;;;5029542;28;20025;-64
2023/04/02 02:03:00;;;;;;;19.33;4.35;;;11.80;99.90;;;;;;5028998;28;20514;-64
2023/04/02 02:05:27;;;;;;;20.77;4.70;;;11.80;99.90;;;;;;5029521;28;20422;-64
2023/04/02 02:07:56;;;;;;;20.75;4.53;;;11.80;99.90;;;;;;5029494;28;20084;-64
2023/04/02 02:10:41;;;;;;;19.58;4.20;;;11.80;99.90;;;;;;5029265;28;20037;-64
2023/04/02 02:13:14;;;;;;;19.00;3.95;;;11.70;99.90;;;;;;5029582;28;20053;-64
2023/04/02 02:15:40;;;;;;;23.10;5.10;;;11.70;99.90;;;;;;5029482;28;20556;-64
2023/04/02 02:18:10;;;;;;;19.02;4.20;;;11.70;99.90;;;;;;5029224;28;20273;-63
2023/04/02 02:20:36;;;;;;;23.50;4.60;;;11.70;99.90;;;;;;5029366;28;20030;-64
2023/04/02 02:23:03;;;;;;;17.20;4.38;;;11.70;99.90;;;;;;5031382;28;20036;-63
2023/04/02 02:25:32;;;;;;;23.92;5.55;;;11.80;99.90;;;;;;5031613;28;20025;-64
2023/04/02 02:28:30;;;;;;;21.48;4.45;;;11.80;99.90;;;;;;5031547;28;20026;-64
2023/04/02 02:31:06;;;;;;;21.00;4.53;;;11.80;99.90;;;;;;5034891;28;20020;-64
2023/04/02 02:33:40;;;;;;;23.92;4.68;;;11.70;99.90;;;;;;5034832;28;20537;-64
2023/04/02 02:36:14;;;;;;;;;;;11.80;99.90;;;;;;5035297;28;20029;-64
2023/04/02 02:38:52;;;;;;;18.10;4.95;;;11.80;99.90;;;;;;5034800;28;19905;-64
2023/04/02 02:41:32;;;;;;;22.98;4.93;;;11.80;99.90;;;;;;5034780;28;20151;-64
2023/04/02 02:44:07;;;;;;;25.75;4.60;;;11.80;99.90;;;;;;5035147;28;20081;-64
2023/04/02 02:46:36;;;;;;;21.85;4.85;;;11.80;99.90;;;;;;5034166;28;20034;-64
2023/04/02 02:49:03;;;;;;;22.95;5.22;;;11.80;99.90;;;;;;5034772;28;20040;-64
2023/04/02 02:51:43;;;;;;;18.98;4.43;;;11.80;99.90;;;;;;5034718;28;20398;-64
2023/04/02 02:54:10;;;;;;;20.42;4.25;;;11.80;99.90;;;;;;5034524;28;20061;-64
2023/04/02 02:56:42;;;;;;;26.73;5.85;;;11.80;99.90;;;;;;5034470;28;20028;-64
2023/04/02 02:59:10;;;;;;;23.00;4.55;;;11.80;99.90;;;;;;5034804;28;20025;-64
2023/04/02 03:01:36;;;;;;;21.20;4.63;;;11.80;99.90;;;;;;5033876;28;20033;-64
2023/04/02 03:04:03;;;;;;;21.85;4.90;;;11.60;99.90;;;;;;5034422;28;20140;-64
2023/04/02 03:06:29;;;;;;;14.70;3.80;;;11.70;99.90;;;;;;5054088;28;20512;-64
2023/04/02 03:09:16;;;;;;;15.88;3.80;;;11.70;99.90;;;;;;5054250;28;20029;-64
2023/04/02 03:11:51;;;;;;;16.67;4.15;;;11.60;99.90;;;;;;5034366;28;20029;-64
2023/04/02 03:14:27;;;;;;;23.75;4.82;;;11.70;99.90;;;;;;5034159;28;20022;-64
2023/04/02 03:17:03;;;;;;;22.65;4.28;;;11.80;99.90;;;;;;5033801;28;20025;-64
2023/04/02 03:19:55;;;;;;;19.95;4.40;;;11.70;99.90;;;;;;5034106;28;20117;-64
2023/04/02 03:22:30;;;;;;;13.50;3.85;;;11.70;99.90;;;;;;5032659;28;20037;-64
2023/04/02 03:25:19;;;;;;;18.70;3.95;;;11.60;99.90;;;;;;5034112;28;20048;-64
2023/04/02 03:27:47;;;;;;;18.23;4.55;;;11.70;99.90;;;;;;5030920;28;20046;-64
2023/04/02 03:30:29;;;;;;;20.85;4.72;;;11.60;99.90;;;;;;5033833;28;20386;-64
2023/04/02 03:33:09;;;;;;;18.98;4.28;;;11.60;99.90;;;;;;5033542;28;20029;-64
2023/04/02 03:36:05;;;;;;;18.00;4.18;;;11.60;99.90;;;;;;5034221;28;20028;-64
2023/04/02 03:38:35;;;;;;;16.17;3.90;;;11.60;99.90;;;;;;5032793;28;20082;-64
2023/04/02 03:41:14;;;;;;;20.90;5.10;;;11.60;99.90;;;;;;5033538;28;20071;-64
2023/04/02 03:43:44;;;;;;;19.05;3.92;;;11.60;99.90;;;;;;5033121;28;20064;-64
2023/04/02 03:46:28;;;;;;;18.77;4.63;;;11.60;99.90;;;;;;5033485;28;20038;-64
2023/04/02 03:48:59;;;;;;;22.92;4.50;;;11.70;99.90;;;;;;5033393;28;20029;-64
2023/04/02 03:52:05;;;;;;;19.13;4.28;;;11.70;99.90;;;;;;5033578;28;20037;-64
2023/04/02 03:54:31;;;;;;;24.95;5.10;;;11.70;99.90;;;;;;5011365;28;20034;-64
2023/04/02 03:56:57;;;;;;;18.83;4.82;;;11.60;99.90;;;;;;5011466;28;20034;-64
2023/04/02 03:59:49;;;;;;;21.27;5.28;;;11.60;99.90;;;;;;5010918;28;20429;-64
2023/04/02 04:02:15;;;;;;;21.17;4.95;;;11.60;99.90;;;;;;5003092;28;20494;-64
2023/04/02 04:04:43;;;;;;;22.92;5.00;;;11.60;99.90;;;;;;5016778;28;20084;-63
2023/04/02 04:07:32;;;;;;;24.63;5.15;;;11.60;99.90;;;;;;5030842;28;20522;-64
2023/04/02 04:09:59;;;;;;;25.70;5.28;;;11.60;99.90;;;;;;5030803;28;20034;-64
2023/04/02 04:12:41;;;;;;;29.63;5.70;;;11.70;99.90;;;;;;5030789;28;20545;-64
2023/04/02 04:15:24;;;;;;;23.10;5.13;;;11.70;99.90;;;;;;5031212;28;20045;-65
2023/04/02 04:18:02;;;;;;;26.50;5.85;;;11.60;99.90;;;;;;5030754;28;20113;-64
2023/04/02 04:20:47;;;;;;;24.40;5.13;;;11.70;99.90;;;;;;5030694;28;20029;-64
2023/04/02 04:23:37;;;;;;;20.55;4.65;;;11.70;99.90;;;;;;5030664;28;20037;-64
2023/04/02 04:26:24;;;;;;;22.02;4.80;;;11.70;99.90;;;;;;5030253;28;20046;-65
2023/04/02 04:29:39;;;;;;;21.65;4.82;;;11.60;99.90;;;;;;5032012;28;20044;-64
2023/04/02 04:32:26;;;;;;;23.42;4.82;;;11.60;99.90;;;;;;5011162;28;20088;-64
2023/04/02 04:34:59;;;;;;;21.42;5.28;;;11.60;99.90;;;;;;5011186;28;20034;-64
2023/04/02 04:37:36;;;;;;;21.08;4.63;;;11.60;99.90;;;;;;5010644;28;20065;-64
2023/04/02 04:40:10;;;;;;;20.38;4.88;;;11.60;99.90;;;;;;5010697;28;20030;-64
2023/04/02 04:42:39;;;;;;;19.23;4.25;;;11.60;99.90;;;;;;5010448;28;20041;-64
2023/04/02 04:45:15;;;;;;;18.98;4.60;;;11.60;99.90;;;;;;5010448;28;20083;-64
2023/04/02 04:47:50;;;;;;;23.23;4.88;;;11.60;99.90;;;;;;5010653;28;20033;-64
2023/04/02 04:50:41;;;;;;;23.17;4.40;;;11.60;99.90;;;;;;5010890;28;20038;-65
2023/04/02 04:53:13;;;;;;;17.17;4.00;;;11.70;99.90;;;;;;5010171;28;20080;-64
2023/04/02 04:55:42;;;;;;;20.02;4.28;;;11.60;99.90;;;;;;5010255;28;20034;-65
2023/04/02 04:58:18;;;;;;;22.45;5.53;;;11.60;99.90;;;;;;5010121;28;20054;-64
2023/04/02 05:00:46;;;;;;;22.90;5.25;;;11.60;99.90;;;;;;5010476;28;20026;-64
2023/04/02 05:03:39;;;;;;;21.15;4.80;;;11.60;99.90;;;;;;5025061;28;20096;-65
2023/04/02 05:06:24;;;;;;;16.15;4.63;;;11.70;99.90;;;;;;5049581;28;20037;-65
2023/04/02 05:08:53;;;;;;;23.95;4.88;;;11.70;99.90;;;;;;5052174;28;20033;-64
2023/04/02 05:11:33;;;;;;;23.00;5.30;;;11.70;99.90;;;;;;5051537;28;20043;-65
2023/04/02 05:14:25;;;;;;;20.20;5.32;;;11.70;99.90;;;;;;5052067;28;20398;-64
2023/04/02 05:16:53;;;;;;;19.63;4.85;;;11.70;99.90;;;;;;5052014;28;20433;-65
2023/04/02 05:19:36;;;;;;;22.35;5.65;;;11.70;99.90;;;;;;5052408;28;20021;-64
2023/04/02 05:22:12;;;;;;;23.67;5.20;;;11.70;99.90;;;;;;5052042;28;20528;-64
2023/04/02 05:24:54;;;;;;;22.88;5.30;;;11.70;99.90;;;;;;5051934;28;20024;-65
2023/04/02 05:27:39;;;;;;;23.15;5.60;;;11.80;99.90;;;;;;5052011;28;20040;-65
2023/04/02 05:30:17;;;;;;;23.92;5.18;;;11.70;99.90;;;;;;5052371;28;20018;-65
2023/04/02 05:32:49;;;;;;;23.33;5.55;;;11.70;99.90;;;;;;5051882;28;20064;-65
2023/04/02 05:35:20;;;;;;;20.80;5.55;;;11.80;99.90;;;;;;5051956;28;20392;-64
2023/04/02 05:37:46;;;;;;;22.33;5.40;;;11.80;99.90;;;;;;5051888;28;20036;-64
2023/04/02 05:40:40;;;;;;;23.20;5.55;;;11.80;99.90;;;;;;5051811;28;20542;-65
2023/04/02 05:43:12;;;;;;;25.55;6.15;;;11.80;99.90;;;;;;5051966;28;20559;-65
2023/04/02 05:45:40;;;;;;;20.08;5.10;;;11.80;99.90;;;;;;5050701;28;20145;-65
2023/04/02 05:48:18;;;;;;;21.40;5.30;;;11.70;99.90;;;;;;5051851;28;20044;-64
2023/04/02 05:50:50;;;;;;;21.25;5.03;;;11.70;99.90;;;;;;5052129;28;20025;-65
2023/04/02 05:53:32;;;;;;;22.67;5.40;;;11.80;99.90;;;;;;5051420;28;20102;-65
2023/04/02 05:56:18;;;;;;;23.42;5.35;;;11.70;99.90;;;;;;5051615;28;20036;-64
2023/04/02 05:58:53;;;;;;;20.13;5.30;;;11.70;99.90;;;;;;5052022;28;20056;-64
2023/04/02 06:01:46;;;;;;;22.42;4.95;;;11.70;99.90;;;;;;5051664;28;20028;-64
2023/04/02 06:04:36;;;;;;;21.60;5.15;;;11.70;99.90;;;;;;5030980;28;20522;-64
2023/04/02 06:07:16;;;;;;;21.77;5.30;;;11.70;99.90;;;;;;5033509;28;20033;-65
2023/04/02 06:09:55;;;;;;;20.20;4.88;;;11.70;99.90;;;;;;5032727;28;20043;-64
2023/04/02 06:12:44;;;;;;;19.70;4.78;;;11.70;99.90;;;;;;5033724;28;20053;-65
2023/04/02 06:15:14;;;;;;;19.90;5.15;;;11.70;99.90;;;;;;5033108;28;20034;-64
2023/04/02 06:17:51;;;;;;;21.98;5.10;;;11.70;99.90;;;;;;5033122;28;20037;-64
2023/04/02 06:20:19;;;;;;;23.10;5.10;;;11.70;99.90;;;;;;5033102;28;20029;-64
2023/04/02 06:22:51;;;;;;;22.20;4.90;;;11.70;99.90;;;;;;5032973;28;20459;-64
2023/04/02 06:25:21;;;;;;;21.52;5.10;;;11.70;99.90;;;;;;5032641;28;20371;-64
2023/04/02 06:27:49;;;;;;;20.35;4.90;;;11.70;99.90;;;;;;5032713;28;20037;-64
2023/04/02 06:30:26;;;;;;;21.50;5.20;;;11.70;99.90;;;;;;5032882;28;20036;-64
2023/04/02 06:32:52;;;;;;;23.00;5.28;;;11.80;99.90;;;;;;5032810;28;20061;-64
2023/04/02 06:35:18;;;;;;;20.17;5.07;;;11.70;99.90;;;;;;5032717;28;20061;-64
2023/04/02 06:37:47;;;;;;;21.73;4.60;;;11.70;99.90;;;;;;5032325;28;20034;-64
2023/04/02 06:40:34;;;;;;;19.52;4.50;;;11.70;99.90;;;;;;5026208;28;20061;-64
2023/04/02 06:43:06;;;;;;;18.25;4.60;;;11.70;99.90;;;;;;4995789;28;20026;-64
2023/04/02 06:45:38;;;;;;;18.10;4.20;;;11.80;99.90;;;;;;4994001;28;20393;-64
2023/04/02 06:48:05;;;;;;;19.48;4.90;;;11.80;99.90;;;;;;4995305;28;20483;-64
2023/04/02 06:50:46;;;;;;;17.73;4.50;;;11.70;99.90;;;;;;4995213;28;20483;-65
2023/04/02 06:53:26;;;;;;;19.40;4.35;;;11.70;99.90;;;;;;4994774;28;20038;-65
2023/04/02 06:56:02;;;;;;;19.02;5.68;;;11.80;99.90;;;;;;4995503;28;20018;-64
2023/04/02 06:58:27;;;;;;;17.70;4.15;;;11.80;99.90;;;;;;4994610;28;20026;-64
2023/04/02 07:00:53;;;;;;;19.80;5.03;;;11.80;99.90;;;;;;4995535;28;20033;-64
2023/04/02 07:03:28;;;;;;;16.65;4.40;;;11.80;99.90;;;;;;4995034;28;20038;-64
2023/04/02 07:05:55;;;;;;;21.90;4.78;;;11.80;99.90;;;;;;5049792;28;20040;-65
2023/04/02 07:08:22;;;;;;;20.88;5.05;;;11.80;99.90;;;;;;5053829;28;20049;-64
2023/04/02 07:10:47;;;;;;;15.13;4.03;;;11.90;99.90;;;;;;5054159;28;20028;-64
2023/04/02 07:13:15;;;;;;;20.77;4.70;;;11.90;99.90;;;;;;5054148;28;20032;-65
2023/04/02 07:15:41;;;;;;;18.40;4.28;;;11.90;99.90;;;;;;5054128;28;20033;-64
2023/04/02 07:18:20;;;;;;;18.80;4.43;;;11.90;99.90;;;;;;5054052;28;20021;-65
2023/04/02 07:20:46;;;;;;;20.60;5.13;;;12.00;99.90;;;;;;5053959;28;20117;-65
2023/04/02 07:23:12;;;;;;;19.98;4.55;;;12.00;99.90;;;;;;5053913;28;20112;-64
2023/04/02 07:25:38;;;;;;;17.13;3.92;;;11.90;99.90;;;;;;5053946;28;20045;-65
2023/04/02 07:28:05;;;;;;;17.05;4.20;;;11.90;99.90;;;;;;5053807;28;20115;-65
2023/04/02 07:30:30;;;;;;;21.70;4.35;;;11.90;99.90;;;;;;5053823;28;20028;-64
2023/04/02 07:32:56;;;;;;;17.13;4.50;;;11.90;99.90;;;;;;5053782;28;20086;-64
2023/04/02 07:35:22;;;;;;;19.02;4.65;;;12.00;99.90;;;;;;5053628;28;20032;-65
2023/04/02 07:37:48;;;;;;;18.75;4.75;;;12.00;99.90;;;;;;5053670;28;20474;-64
2023/04/02 07:40:20;;;;;;;20.58;5.00;;;12.10;99.90;;;;;;5053787;28;20071;-64
2023/04/02 07:42:46;;;;;;;18.92;4.63;;;12.10;99.90;;;;;;5053751;28;20033;-64
2023/04/02 07:45:12;;;;;;;21.08;4.18;;;12.10;99.90;;;;;;5053445;28;20082;-65
2023/04/02 07:47:38;;;;;;;20.95;5.15;;;12.20;99.90;;;;;;5053534;28;20037;-65
2023/04/02 07:50:05;;;;;;;19.15;4.72;;;12.20;99.90;;;;;;5052996;28;20500;-65
2023/04/02 07:52:31;;;;;;;18.63;4.25;;;12.30;99.90;;;;;;5053266;28;20029;-65
2023/04/02 07:54:56;;;;;;;15.68;4.00;;;12.30;99.90;;;;;;5053789;28;20074;-64
2023/04/02 07:57:22;;;;;;;17.38;4.20;;;12.30;99.90;;;;;;5052061;28;20136;-64
2023/04/02 07:59:48;;;;;;;13.88;4.18;;;12.30;99.90;;;;;;5053339;28;20374;-64
2023/04/02 08:02:20;;;;;;;16.48;4.07;;;12.30;99.90;;;;;;5053236;28;20025;-64
2023/04/02 08:04:47;;;;;;;18.13;3.80;;;12.30;99.90;;;;;;5052783;28;20124;-65
2023/04/02 08:07:13;;;;;;;17.48;4.22;;;12.30;99.90;;;;;;5052909;28;20547;-64
2023/04/02 08:09:39;;;;;;;17.42;4.28;;;12.30;99.90;;;;;;5052997;28;20014;-64
2023/04/02 08:12:04;;;;;;;16.75;4.38;;;12.30;99.90;;;;;;5053475;28;20366;-64
2023/04/02 08:14:30;;;;;;;14.95;3.83;;;12.20;99.90;;;;;;5053068;28;20094;-65
2023/04/02 08:16:56;;;;;;;12.27;3.53;;;12.20;99.90;;;;;;5052960;28;20041;-64
2023/04/02 08:19:22;;;;;;;15.13;3.75;;;12.30;99.90;;;;;;5052424;28;20025;-65
2023/04/02 08:21:50;;;;;;;12.35;3.30;;;12.20;99.90;;;;;;5052858;28;20025;-64
2023/04/02 08:24:19;;;;;;;19.17;3.97;;;12.30;99.90;;;;;;5052837;28;20033;-65
2023/04/02 08:26:47;;;;;;;12.02;3.92;;;12.40;99.90;;;;;;5051819;28;20512;-65
2023/04/02 08:29:13;;;;;;;14.50;3.42;;;12.40;99.90;;;;;;5053210;28;20048;-64
2023/04/02 08:31:38;;;;;;;14.82;3.47;;;12.40;99.90;;;;;;5052898;28;20444;-64
2023/04/02 08:34:04;;;;;;;15.43;4.07;;;12.60;99.90;;;;;;5052319;28;20025;-64
2023/04/02 08:36:33;;;;;;;17.83;4.25;;;12.60;99.90;;;;;;5052675;28;20481;-65
2023/04/02 08:38:59;;;;;;;18.05;4.00;;;12.70;99.90;;;;;;5052475;28;20025;-64
2023/04/02 08:41:31;;;;;;;21.33;4.72;;;12.80;99.90;;;;;;5052587;28;20060;-65
2023/04/02 08:44:04;;;;;;;15.80;4.03;;;12.90;99.90;;;;;;5052222;28;20029;-64
2023/04/02 08:46:39;;;;;;;13.68;3.58;;;12.90;99.90;;;;;;5052143;28;20037;-64
2023/04/02 08:49:17;;;;;;;13.85;3.60;;;12.90;99.90;;;;;;5051809;28;20059;-64
2023/04/02 08:51:44;;;;;;;18.52;3.95;;;12.90;99.90;;;;;;5052829;28;20044;-65
2023/04/02 08:54:22;;;;;;;19.10;4.70;;;12.90;99.90;;;;;;5051198;28;20033;-64
2023/04/02 08:56:56;;;;;;;18.83;4.65;;;13.10;99.90;;;;;;5050954;28;20470;-64
2023/04/02 08:59:37;;;;;;;18.85;4.30;;;13.10;99.90;;;;;;5050917;28;20560;-65
2023/04/02 09:02:24;;;;;;;14.98;3.80;;;13.20;99.90;;;;;;5052125;28;20025;-65
2023/04/02 09:04:50;;;;;;;16.00;3.90;;;13.20;99.90;;;;;;5051579;28;20213;-64
2023/04/02 09:07:17;;;;;;;15.73;3.60;;;13.50;99.90;;;;;;5052167;28;20488;-64
2023/04/02 09:09:47;;;;;;;23.50;4.75;;;13.60;99.90;;;;;;5052393;28;20086;-65
2023/04/02 09:12:25;;;;;;;15.30;3.75;;;13.50;99.90;;;;;;5052109;28;20025;-64
2023/04/02 09:15:09;;;;;;;12.45;3.72;;;13.30;99.90;;;;;;5052242;28;20482;-65
2023/04/02 09:17:36;;;;;;;;;;;13.30;99.90;;;;;;5051933;28;20025;-65
2023/04/02 09:20:27;;;;;;;14.75;3.92;;;13.20;99.90;;;;;;5052001;28;19964;-64
2023/04/02 09:22:54;;;;;;;19.73;4.35;;;13.30;99.90;;;;;;5052042;28;20439;-64
2023/04/02 09:25:31;;;;;;;17.35;3.78;;;13.20;99.90;;;;;;5051914;28;20078;-64
2023/04/02 09:28:00;;;;;;;17.58;4.25;;;13.20;99.90;;;;;;5051840;28;20025;-64
2023/04/02 09:30:28;;;;;;;16.98;3.95;;;13.20;99.90;;;;;;5051935;28;20029;-64
2023/04/02 09:33:06;;;;;;;15.18;3.63;;;13.20;99.90;;;;;;5051476;28;20494;-64
2023/04/02 09:35:34;;;;;;;16.13;3.58;;;13.30;99.90;;;;;;5052487;28;20036;-65
2023/04/02 09:38:09;;;;;;;13.48;3.42;;;13.50;99.90;;;;;;5052940;28;20489;-64
2023/04/02 09:40:48;;;;;;;14.27;4.00;;;13.30;99.90;;;;;;5055836;28;20033;-64
2023/04/02 09:43:26;;;;;;;16.20;3.90;;;13.20;99.90;;;;;;5055765;28;20025;-64
2023/04/02 09:46:02;;;;;;;25.58;5.20;;;13.10;99.90;;;;;;5055702;28;20033;-64
2023/04/02 09:48:31;;;;;;;20.38;4.90;;;12.90;99.90;;;;;;5056012;28;20588;-64
2023/04/02 09:51:19;;;;;;;30.58;10.43;;;12.90;99.90;;;;;;5055824;28;20028;-64
2023/04/02 09:53:50;;;;;;;27.98;9.70;;;13.00;99.90;;;;;;5055652;28;20397;-64
2023/04/02 09:56:17;;;;;;;23.35;5.75;;;13.10;99.90;;;;;;5055727;28;20500;-64
2023/04/02 09:58:44;;;;;;;23.17;5.50;;;13.20;99.90;;;;;;5055533;28;20090;-64
2023/04/02 10:01:32;;;;;;;18.80;4.45;;;13.30;99.90;;;;;;5055187;28;20033;-64
2023/04/02 10:03:58;;;;;;;15.50;4.35;;;13.40;99.90;;;;;;5055315;28;20056;-64
2023/04/02 10:06:26;;;;;;;13.65;3.75;;;13.60;99.90;;;;;;5055669;28;20047;-64
2023/04/02 10:08:52;;;;;;;14.43;3.70;;;13.50;99.90;;;;;;5055457;28;20316;-64
2023/04/02 10:11:26;;;;;;;15.32;3.80;;;13.50;99.90;;;;;;5053939;28;20053;-64
2023/04/02 10:13:59;;;;;;;;;;;13.60;99.90;;;;;;5055711;28;20051;-64
2023/04/02 10:16:42;;;;;;;10.50;2.80;;;13.70;99.90;;;;;;5054650;28;20361;-63
2023/04/02 10:19:34;;;;;;;9.77;2.90;;;13.70;99.90;;;;;;5055271;28;20486;-64
2023/04/02 10:22:11;;;;;;;16.30;3.58;;;13.90;99.90;;;;;;5055201;28;20020;-63
2023/04/02 10:24:36;;;;;;;11.93;2.70;;;13.90;99.90;;;;;;5054978;28;20083;-64
2023/04/02 10:27:24;;;;;;;11.80;2.72;;;13.80;99.90;;;;;;5055373;28;20045;-64
2023/04/02 10:30:12;;;;;;;10.43;2.70;;;13.90;99.90;;;;;;5054966;28;20060;-64
2023/04/02 10:32:47;;;;;;;8.48;2.28;;;13.90;99.90;;;;;;5054779;28;20041;-64
2023/04/02 10:35:37;;;;;;;10.02;2.95;;;13.90;99.90;;;;;;5055077;28;20056;-64
2023/04/02 10:38:25;;;;;;;10.07;2.60;;;14.00;99.90;;;;;;5054878;28;20041;-64
2023/04/02 10:40:51;;;;;;;9.93;2.85;;;13.90;99.90;;;;;;5054885;28;20029;-64
2023/04/02 10:43:50;;;;;;;8.18;2.30;;;14.10;99.90;;;;;;5053857;28;20025;-64
2023/04/02 10:46:36;;;;;;;11.48;2.70;;;14.20;99.90;;;;;;5054684;28;20029;-64
2023/04/02 10:49:15;;;;;;;11.27;2.60;;;14.50;99.90;;;;;;5053427;28;20029;-64
2023/04/02 10:51:49;;;;;;;9.45;2.40;;;14.60;99.90;;;;;;5054538;28;20018;-63
2023/04/02 10:54:50;;;;;;;6.88;2.00;;;14.30;99.90;;;;;;5053289;28;20493;-64
2023/04/02 10:57:25;;;;;;;7.70;2.20;;;14.20;99.90;;;;;;5054326;28;20424;-64
2023/04/02 11:00:17;;;;;;;6.75;2.20;;;14.10;99.90;;;;;;5053925;28;20025;-63
2023/04/02 11:02:42;;;;;;;8.32;2.60;;;14.20;99.90;;;;;;5051289;28;20557;-64
2023/04/02 11:05:30;;;;;;;9.77;2.55;;;14.50;99.90;;;;;;5053950;28;20045;-64
2023/04/02 11:08:10;;;;;;;7.15;2.33;;;14.50;99.90;;;;;;5054081;28;20485;-64
2023/04/02 11:10:43;;;;;;;5.43;1.45;;;14.40;99.90;;;;;;5053991;28;20120;-63
2023/04/02 11:13:21;;;;;;;6.03;1.77;;;14.20;99.90;;;;;;5053691;28;20025;-64
2023/04/02 11:15:47;;;;;;;4.40;1.50;;;14.30;99.90;;;;;;5054121;28;20108;-64
2023/04/02 11:18:39;;;;;;;7.57;1.90;;;14.30;99.90;;;;;;5054011;28;20040;-64
2023/04/02 11:21:08;;;;;;;7.10;1.90;;;14.20;99.90;;;;;;5053271;28;20037;-64
2023/04/02 11:23:38;;;;;;;7.63;2.08;;;14.40;99.90;;;;;;5053959;28;20025;-64
2023/04/02 11:26:36;;;;;;;7.20;2.10;;;14.40;99.90;;;;;;5053873;28;20040;-65
2023/04/02 11:29:27;;;;;;;7.53;2.30;;;14.70;99.90;;;;;;5053253;28;20091;-64
2023/04/02 11:32:11;;;;;;;8.70;2.40;;;14.70;99.90;;;;;;5054137;28;20036;-64
2023/04/02 11:34:40;;;;;;;9.80;2.40;;;14.70;99.90;;;;;;5053666;28;20021;-65
2023/04/02 11:37:30;;;;;;;9.05;2.60;;;14.50;99.90;;;;;;5053719;28;20032;-64
2023/04/02 11:39:58;;;;;;;9.63;2.63;;;14.50;99.90;;;;;;5049539;28;20044;-65
2023/04/02 11:42:28;;;;;;;7.85;2.10;;;14.50;99.90;;;;;;5053175;28;20021;-64
2023/04/02 11:44:55;;;;;;;9.75;2.38;;;14.50;99.90;;;;;;5052353;28;20053;-64
2023/04/02 11:47:26;;;;;;;11.77;2.80;;;14.80;99.90;;;;;;5053825;28;20043;-64
2023/04/02 11:49:59;;;;;;;11.82;2.90;;;15.00;99.90;;;;;;5053449;28;20393;-64
2023/04/02 11:52:50;;;;;;;10.85;2.67;;;14.90;99.90;;;;;;5053465;28;20040;-64
2023/04/02 11:55:33;;;;;;;11.05;2.40;;;14.90;99.90;;;;;;5053410;28;20105;-64
2023/04/02 11:58:31;;;;;;;9.40;2.53;;;15.10;99.90;;;;;;5052969;28;20075;-64
2023/04/02 12:01:19;;;;;;;10.43;2.42;;;14.90;99.90;;;;;;5053289;28;20033;-64
2023/04/02 12:04:22;;;;;;;5.97;2.17;;;14.90;99.90;;;;;;5053032;28;20041;-64
2023/04/02 12:07:09;;;;;;;8.00;2.42;;;14.70;99.90;;;;;;5053146;28;20138;-64
2023/04/02 12:09:57;;;;;;;7.95;2.08;;;14.90;99.90;;;;;;5052592;28;20013;-64
2023/04/02 12:12:23;;;;;;;8.82;2.38;;;14.70;99.90;;;;;;5053062;28;20029;-64
2023/04/02 12:14:56;;;;;;;9.13;2.38;;;14.90;99.90;;;;;;5053110;28;20095;-64
2023/04/02 12:17:29;;;;;;;8.23;2.33;;;14.90;99.90;;;;;;5052510;28;20029;-64
2023/04/02 12:20:01;;;;;;;6.53;2.25;;;15.10;99.90;;;;;;5053241;28;20025;-64
2023/04/02 12:22:29;;;;;;;8.00;2.15;;;15.00;99.90;;;;;;5052763;28;20035;-64
2023/04/02 12:25:02;;;;;;;9.20;2.05;;;14.90;99.90;;;;;;5052906;28;20432;-64
2023/04/02 12:27:29;;;;;;;6.60;2.07;;;14.80;99.90;;;;;;5052458;28;20029;-64
2023/04/02 12:30:10;;;;;;;6.05;1.85;;;14.90;99.90;;;;;;5052801;28;20386;-65
2023/04/02 12:32:36;;;;;;;7.68;1.80;;;14.80;99.90;;;;;;5052682;28;20544;-64
2023/04/02 12:35:03;;;;;;;7.93;2.10;;;14.80;99.90;;;;;;5052732;28;20022;-65
2023/04/02 12:37:30;;;;;;;8.65;2.05;;;14.80;99.90;;;;;;5051217;28;20024;-64
2023/04/02 12:40:05;;;;;;;8.93;2.35;;;14.80;99.90;;;;;;5052861;28;20028;-64
2023/04/02 12:42:36;;;;;;;9.18;2.70;;;14.70;99.90;;;;;;5052645;28;20028;-64
2023/04/02 12:45:04;;;;;;;8.48;2.00;;;14.50;99.90;;;;;;5052466;28;20039;-64
2023/04/02 12:47:30;;;;;;;7.70;1.90;;;14.60;99.90;;;;;;5052840;28;20082;-64
2023/04/02 12:49:58;;;;;;;6.75;2.00;;;14.90;99.90;;;;;;5052409;28;20032;-63
2023/04/02 12:52:27;;;;;;;9.30;2.05;;;14.70;99.90;;;;;;5052277;28;20053;-64
2023/04/02 12:55:03;;;;;;;6.80;2.20;;;14.90;99.90;;;;;;5050653;28;20397;-64
2023/04/02 12:57:29;;;;;;;10.63;2.10;;;15.10;99.90;;;;;;5052217;28;20037;-64
2023/04/02 13:00:00;;;;;;;9.07;2.53;;;14.90;99.90;;;;;;5052674;28;20044;-64
2023/04/02 13:02:31;;;;;;;8.95;2.30;;;14.60;99.90;;;;;;5052274;28;20071;-64
2023/04/02 13:05:02;;;;;;;10.05;2.30;;;14.90;99.90;;;;;;5051873;28;20574;-64
2023/04/02 13:07:31;;;;;;;7.47;2.25;;;15.10;99.90;;;;;;5052357;28;20094;-64
2023/04/02 13:09:59;;;;;;;10.80;2.83;;;15.30;99.90;;;;;;5051493;28;20049;-64
2023/04/02 13:12:36;;;;;;;8.10;2.50;;;15.30;99.90;;;;;;5051596;28;20401;-63
2023/04/02 13:15:16;;;;;;;10.38;2.13;;;15.20;99.90;;;;;;5052103;28;20029;-64
2023/04/02 13:17:44;;;;;;;9.15;3.00;;;14.80;99.90;;;;;;5052035;28;20105;-64